sensor_id;sensor_type;location;lat;lon;timestamp;P1;durP1;ratioP1;P2;durP2;ratioP2
9848;SDS011;4963;51.444;6.528;2022-10-24T00:02:26;6.50;;;2.50;;
9848;SDS011;4963;51.444;6.528;2022-10-24T00:04:53;5.87;;;3.13;;
9848;SDS011;4963;51.444;6.528;2022-10-24T00:07:20;6.57;;;3.33;;
9848;SDS011;4963;51.444;6.528;2022-10-24T00:09:46;8.37;;;3.27;;
9848;SDS011;4963;51.444;6.528;2022-10-24T00:12:13;5.73;;;3.00;;
9848;SDS011;4963;51.444;6.528;2022-10-24T00:14:40;6.10;;;3.03;;
9848;SDS011;4963;51.444;6.528;2022-10-24T00:17:08;6.67;;;2.80;;
9848;SDS011;4963;51.444;6.528;2022-10-24T00:19:35;6.37;;;3.00;;
9848;SDS011;4963;51.444;6.528;2022-10-24T00:22:02;5.87;;;3.20;;
9848;SDS011;4963;51.444;6.528;2022-10-24T00:24:29;7.73;;;3.10;;
9848;SDS011;4963;51.444;6.528;2022-10-24T00:26:56;7.07;;;3.13;;
9848;SDS011;4963;51.444;6.528;2022-10-24T00:29:22;8.43;;;3.20;;
9848;SDS011;4963;51.444;6.528;2022-10-24T00:31:49;8.13;;;3.00;;
9848;SDS011;4963;51.444;6.528;2022-10-24T00:34:17;10.20;;;3.13;;
9848;SDS011;4963;51.444;6.528;2022-10-24T00:36:44;6.80;;;3.20;;
9848;SDS011;4963;51.444;6.528;2022-10-24T00:39:11;11.30;;;3.20;;
9848;SDS011;4963;51.444;6.528;2022-10-24T00:41:39;9.83;;;3.00;;
9848;SDS011;4963;51.444;6.528;2022-10-24T00:44:18;11.50;;;3.10;;
9848;SDS011;4963;51.444;6.528;2022-10-24T00:46:48;6.90;;;3.30;;
9848;SDS011;4963;51.444;6.528;2022-10-24T00:49:20;11.63;;;3.80;;
9848;SDS011;4963;51.444;6.528;2022-10-24T00:51:50;8.83;;;3.40;;
9848;SDS011;4963;51.444;6.528;2022-10-24T00:54:21;9.27;;;3.70;;
9848;SDS011;4963;51.444;6.528;2022-10-24T00:56:52;12.00;;;3.50;;
9848;SDS011;4963;51.444;6.528;2022-10-24T00:59:27;10.33;;;3.47;;
9848;SDS011;4963;51.444;6.528;2022-10-24T01:01:54;10.23;;;4.03;;
9848;SDS011;4963;51.444;6.528;2022-10-24T01:04:23;10.17;;;3.23;;
9848;SDS011;4963;51.444;6.528;2022-10-24T01:06:54;8.80;;;3.37;;
9848;SDS011;4963;51.444;6.528;2022-10-24T01:09:32;10.67;;;3.60;;
9848;SDS011;4963;51.444;6.528;2022-10-24T01:12:13;7.83;;;3.50;;
9848;SDS011;4963;51.444;6.528;2022-10-24T01:14:49;8.30;;;3.17;;
9848;SDS011;4963;51.444;6.528;2022-10-24T01:17:21;5.23;;;2.63;;
9848;SDS011;4963;51.444;6.528;2022-10-24T01:20:04;8.00;;;3.27;;
9848;SDS011;4963;51.444;6.528;2022-10-24T01:22:44;6.60;;;2.80;;
9848;SDS011;4963;51.444;6.528;2022-10-24T01:25:24;6.20;;;3.10;;
9848;SDS011;4963;51.444;6.528;2022-10-24T01:28:02;8.33;;;3.60;;
9848;SDS011;4963;51.444;6.528;2022-10-24T01:30:36;10.33;;;3.37;;
9848;SDS011;4963;51.444;6.528;2022-10-24T01:33:10;7.17;;;3.00;;
9848;SDS011;4963;51.444;6.528;2022-10-24T01:35:42;8.03;;;3.63;;
9848;SDS011;4963;51.444;6.528;2022-10-24T01:38:13;6.57;;;3.13;;
9848;SDS011;4963;51.444;6.528;2022-10-24T01:40:45;6.73;;;3.10;;
9848;SDS011;4963;51.444;6.528;2022-10-24T01:43:17;5.87;;;2.60;;
9848;SDS011;4963;51.444;6.528;2022-10-24T01:45:49;5.17;;;2.70;;
9848;SDS011;4963;51.444;6.528;2022-10-24T01:48:20;10.10;;;3.10;;
9848;SDS011;4963;51.444;6.528;2022-10-24T01:50:50;6.80;;;2.90;;
9848;SDS011;4963;51.444;6.528;2022-10-24T01:53:19;7.40;;;3.20;;
9848;SDS011;4963;51.444;6.528;2022-10-24T01:55:50;7.17;;;3.13;;
9848;SDS011;4963;51.444;6.528;2022-10-24T01:58:19;10.37;;;3.20;;
9848;SDS011;4963;51.444;6.528;2022-10-24T02:00:46;7.33;;;3.43;;
9848;SDS011;4963;51.444;6.528;2022-10-24T02:03:18;6.07;;;3.07;;
9848;SDS011;4963;51.444;6.528;2022-10-24T02:05:49;5.77;;;2.97;;
9848;SDS011;4963;51.444;6.528;2022-10-24T02:08:19;10.23;;;3.30;;
9848;SDS011;4963;51.444;6.528;2022-10-24T02:10:51;8.73;;;3.20;;
9848;SDS011;4963;51.444;6.528;2022-10-24T02:13:21;7.17;;;2.97;;
9848;SDS011;4963;51.444;6.528;2022-10-24T02:15:54;5.80;;;3.20;;
9848;SDS011;4963;51.444;6.528;2022-10-24T02:18:24;9.67;;;2.87;;
9848;SDS011;4963;51.444;6.528;2022-10-24T02:20:52;7.30;;;2.83;;
9848;SDS011;4963;51.444;6.528;2022-10-24T02:23:25;8.40;;;3.50;;
9848;SDS011;4963;51.444;6.528;2022-10-24T02:25:56;4.70;;;3.00;;
9848;SDS011;4963;51.444;6.528;2022-10-24T02:28:28;9.27;;;3.00;;
9848;SDS011;4963;51.444;6.528;2022-10-24T02:31:01;7.03;;;2.90;;
9848;SDS011;4963;51.444;6.528;2022-10-24T02:33:32;9.90;;;2.93;;
9848;SDS011;4963;51.444;6.528;2022-10-24T02:36:01;8.33;;;2.87;;
9848;SDS011;4963;51.444;6.528;2022-10-24T02:38:30;7.83;;;3.03;;
9848;SDS011;4963;51.444;6.528;2022-10-24T02:41:01;7.73;;;3.20;;
9848;SDS011;4963;51.444;6.528;2022-10-24T02:43:33;9.90;;;2.87;;
9848;SDS011;4963;51.444;6.528;2022-10-24T02:46:02;5.57;;;2.60;;
9848;SDS011;4963;51.444;6.528;2022-10-24T02:48:31;9.60;;;3.57;;
9848;SDS011;4963;51.444;6.528;2022-10-24T02:51:01;9.30;;;3.27;;
9848;SDS011;4963;51.444;6.528;2022-10-24T02:53:29;7.10;;;2.90;;
9848;SDS011;4963;51.444;6.528;2022-10-24T02:55:56;6.73;;;3.20;;
9848;SDS011;4963;51.444;6.528;2022-10-24T02:58:22;7.30;;;3.20;;
9848;SDS011;4963;51.444;6.528;2022-10-24T03:00:49;4.97;;;3.07;;
9848;SDS011;4963;51.444;6.528;2022-10-24T03:03:17;4.97;;;2.53;;
9848;SDS011;4963;51.444;6.528;2022-10-24T03:05:46;7.27;;;2.80;;
9848;SDS011;4963;51.444;6.528;2022-10-24T03:08:13;5.40;;;2.43;;
9848;SDS011;4963;51.444;6.528;2022-10-24T03:10:40;5.23;;;2.80;;
9848;SDS011;4963;51.444;6.528;2022-10-24T03:13:07;7.63;;;2.93;;
9848;SDS011;4963;51.444;6.528;2022-10-24T03:15:33;3.20;;;2.30;;
9848;SDS011;4963;51.444;6.528;2022-10-24T03:18:00;9.00;;;2.73;;
9848;SDS011;4963;51.444;6.528;2022-10-24T03:20:28;6.77;;;3.00;;
9848;SDS011;4963;51.444;6.528;2022-10-24T03:22:55;6.33;;;3.00;;
9848;SDS011;4963;51.444;6.528;2022-10-24T03:25:22;8.93;;;3.00;;
9848;SDS011;4963;51.444;6.528;2022-10-24T03:27:48;8.97;;;3.30;;
9848;SDS011;4963;51.444;6.528;2022-10-24T03:30:15;4.40;;;2.53;;
9848;SDS011;4963;51.444;6.528;2022-10-24T03:32:42;4.63;;;2.70;;
9848;SDS011;4963;51.444;6.528;2022-10-24T03:35:09;7.77;;;2.80;;
9848;SDS011;4963;51.444;6.528;2022-10-24T03:37:37;6.93;;;2.93;;
9848;SDS011;4963;51.444;6.528;2022-10-24T03:40:04;5.10;;;2.40;;
9848;SDS011;4963;51.444;6.528;2022-10-24T03:42:32;7.30;;;2.53;;
9848;SDS011;4963;51.444;6.528;2022-10-24T03:44:59;5.30;;;2.40;;
9848;SDS011;4963;51.444;6.528;2022-10-24T03:47:25;7.90;;;2.97;;
9848;SDS011;4963;51.444;6.528;2022-10-24T03:49:52;6.93;;;2.93;;
9848;SDS011;4963;51.444;6.528;2022-10-24T03:52:19;6.00;;;3.20;;
9848;SDS011;4963;51.444;6.528;2022-10-24T03:54:47;7.00;;;2.80;;
9848;SDS011;4963;51.444;6.528;2022-10-24T03:57:14;5.60;;;2.87;;
9848;SDS011;4963;51.444;6.528;2022-10-24T03:59:41;7.03;;;2.73;;
9848;SDS011;4963;51.444;6.528;2022-10-24T04:02:08;7.73;;;2.70;;
9848;SDS011;4963;51.444;6.528;2022-10-24T04:04:34;9.77;;;3.37;;
9848;SDS011;4963;51.444;6.528;2022-10-24T04:07:01;8.50;;;3.00;;
9848;SDS011;4963;51.444;6.528;2022-10-24T04:09:29;7.33;;;3.00;;
9848;SDS011;4963;51.444;6.528;2022-10-24T04:11:58;4.80;;;2.83;;
9848;SDS011;4963;51.444;6.528;2022-10-24T04:14:24;5.17;;;2.47;;
9848;SDS011;4963;51.444;6.528;2022-10-24T04:16:51;9.23;;;2.93;;
9848;SDS011;4963;51.444;6.528;2022-10-24T04:19:18;4.83;;;2.50;;
9848;SDS011;4963;51.444;6.528;2022-10-24T04:21:45;10.33;;;3.17;;
9848;SDS011;4963;51.444;6.528;2022-10-24T04:24:12;6.93;;;2.77;;
9848;SDS011;4963;51.444;6.528;2022-10-24T04:26:39;8.17;;;2.63;;
9848;SDS011;4963;51.444;6.528;2022-10-24T04:29:07;6.40;;;2.40;;
9848;SDS011;4963;51.444;6.528;2022-10-24T04:31:34;5.30;;;2.67;;
9848;SDS011;4963;51.444;6.528;2022-10-24T04:34:01;4.63;;;2.63;;
9848;SDS011;4963;51.444;6.528;2022-10-24T04:36:29;4.27;;;2.57;;
9848;SDS011;4963;51.444;6.528;2022-10-24T04:38:56;4.80;;;2.50;;
9848;SDS011;4963;51.444;6.528;2022-10-24T04:41:22;5.30;;;2.20;;
9848;SDS011;4963;51.444;6.528;2022-10-24T04:43:50;3.40;;;2.10;;
9848;SDS011;4963;51.444;6.528;2022-10-24T04:46:18;8.80;;;2.50;;
9848;SDS011;4963;51.444;6.528;2022-10-24T04:48:45;6.90;;;2.37;;
9848;SDS011;4963;51.444;6.528;2022-10-24T04:51:12;9.90;;;2.50;;
9848;SDS011;4963;51.444;6.528;2022-10-24T04:53:39;7.63;;;2.97;;
9848;SDS011;4963;51.444;6.528;2022-10-24T04:56:06;5.47;;;2.40;;
9848;SDS011;4963;51.444;6.528;2022-10-24T04:58:33;4.37;;;2.30;;
9848;SDS011;4963;51.444;6.528;2022-10-24T05:00:59;13.10;;;2.97;;
9848;SDS011;4963;51.444;6.528;2022-10-24T05:03:28;7.43;;;2.43;;
9848;SDS011;4963;51.444;6.528;2022-10-24T05:05:54;6.57;;;2.50;;
9848;SDS011;4963;51.444;6.528;2022-10-24T05:08:21;9.53;;;2.93;;
9848;SDS011;4963;51.444;6.528;2022-10-24T05:10:48;4.30;;;2.30;;
9848;SDS011;4963;51.444;6.528;2022-10-24T05:13:15;3.87;;;2.43;;
9848;SDS011;4963;51.444;6.528;2022-10-24T05:15:42;5.00;;;2.30;;
9848;SDS011;4963;51.444;6.528;2022-10-24T05:18:09;6.33;;;2.60;;
9848;SDS011;4963;51.444;6.528;2022-10-24T05:20:37;5.43;;;2.90;;
9848;SDS011;4963;51.444;6.528;2022-10-24T05:23:04;4.93;;;3.03;;
9848;SDS011;4963;51.444;6.528;2022-10-24T05:25:31;8.03;;;3.17;;
9848;SDS011;4963;51.444;6.528;2022-10-24T05:27:57;6.37;;;3.10;;
9848;SDS011;4963;51.444;6.528;2022-10-24T05:30:24;6.73;;;2.60;;
9848;SDS011;4963;51.444;6.528;2022-10-24T05:32:51;6.60;;;2.60;;
9848;SDS011;4963;51.444;6.528;2022-10-24T05:35:18;5.60;;;2.70;;
9848;SDS011;4963;51.444;6.528;2022-10-24T05:37:46;6.07;;;2.90;;
9848;SDS011;4963;51.444;6.528;2022-10-24T05:40:13;4.73;;;2.53;;
9848;SDS011;4963;51.444;6.528;2022-10-24T05:42:40;7.73;;;2.77;;
9848;SDS011;4963;51.444;6.528;2022-10-24T05:45:07;6.30;;;2.37;;
9848;SDS011;4963;51.444;6.528;2022-10-24T05:47:35;4.97;;;2.13;;
9848;SDS011;4963;51.444;6.528;2022-10-24T05:50:02;6.47;;;1.93;;
9848;SDS011;4963;51.444;6.528;2022-10-24T05:52:29;4.47;;;2.33;;
9848;SDS011;4963;51.444;6.528;2022-10-24T05:54:58;7.23;;;2.70;;
9848;SDS011;4963;51.444;6.528;2022-10-24T05:57:24;5.63;;;2.23;;
9848;SDS011;4963;51.444;6.528;2022-10-24T05:59:51;3.70;;;1.87;;
9848;SDS011;4963;51.444;6.528;2022-10-24T06:02:18;6.20;;;2.20;;
9848;SDS011;4963;51.444;6.528;2022-10-24T06:04:45;4.43;;;2.00;;
9848;SDS011;4963;51.444;6.528;2022-10-24T06:07:14;6.53;;;2.27;;
9848;SDS011;4963;51.444;6.528;2022-10-24T06:09:42;5.00;;;1.97;;
9848;SDS011;4963;51.444;6.528;2022-10-24T06:12:10;7.80;;;2.07;;
9848;SDS011;4963;51.444;6.528;2022-10-24T06:14:38;6.47;;;2.00;;
9848;SDS011;4963;51.444;6.528;2022-10-24T06:17:06;6.23;;;2.33;;
9848;SDS011;4963;51.444;6.528;2022-10-24T06:19:35;6.03;;;2.10;;
9848;SDS011;4963;51.444;6.528;2022-10-24T06:22:03;4.60;;;1.93;;
9848;SDS011;4963;51.444;6.528;2022-10-24T06:24:32;5.97;;;2.10;;
9848;SDS011;4963;51.444;6.528;2022-10-24T06:26:59;5.50;;;2.00;;
9848;SDS011;4963;51.444;6.528;2022-10-24T06:29:28;4.17;;;2.00;;
9848;SDS011;4963;51.444;6.528;2022-10-24T06:31:54;11.63;;;2.20;;
9848;SDS011;4963;51.444;6.528;2022-10-24T06:34:21;6.37;;;2.00;;
9848;SDS011;4963;51.444;6.528;2022-10-24T06:36:48;6.70;;;1.93;;
9848;SDS011;4963;51.444;6.528;2022-10-24T06:39:15;7.80;;;1.90;;
9848;SDS011;4963;51.444;6.528;2022-10-24T06:41:42;5.27;;;2.20;;
9848;SDS011;4963;51.444;6.528;2022-10-24T06:44:09;5.77;;;1.70;;
9848;SDS011;4963;51.444;6.528;2022-10-24T06:46:37;4.63;;;1.53;;
9848;SDS011;4963;51.444;6.528;2022-10-24T06:49:04;5.73;;;1.50;;
9848;SDS011;4963;51.444;6.528;2022-10-24T06:51:31;4.60;;;1.90;;
9848;SDS011;4963;51.444;6.528;2022-10-24T06:53:58;4.90;;;1.93;;
9848;SDS011;4963;51.444;6.528;2022-10-24T06:56:24;7.07;;;1.80;;
9848;SDS011;4963;51.444;6.528;2022-10-24T06:58:51;3.47;;;1.60;;
9848;SDS011;4963;51.444;6.528;2022-10-24T07:01:19;6.57;;;1.40;;
9848;SDS011;4963;51.444;6.528;2022-10-24T07:03:49;6.30;;;1.70;;
9848;SDS011;4963;51.444;6.528;2022-10-24T07:06:16;5.13;;;1.90;;
9848;SDS011;4963;51.444;6.528;2022-10-24T07:08:44;7.33;;;2.00;;
9848;SDS011;4963;51.444;6.528;2022-10-24T07:11:11;4.53;;;1.93;;
9848;SDS011;4963;51.444;6.528;2022-10-24T07:13:38;7.23;;;1.80;;
9848;SDS011;4963;51.444;6.528;2022-10-24T07:16:05;5.87;;;1.77;;
9848;SDS011;4963;51.444;6.528;2022-10-24T07:18:33;7.87;;;1.80;;
9848;SDS011;4963;51.444;6.528;2022-10-24T07:21:01;4.97;;;1.87;;
9848;SDS011;4963;51.444;6.528;2022-10-24T07:23:28;7.10;;;1.80;;
9848;SDS011;4963;51.444;6.528;2022-10-24T07:25:59;6.73;;;2.33;;
9848;SDS011;4963;51.444;6.528;2022-10-24T07:28:26;8.20;;;2.03;;
9848;SDS011;4963;51.444;6.528;2022-10-24T07:30:53;3.23;;;1.60;;
9848;SDS011;4963;51.444;6.528;2022-10-24T07:33:20;6.67;;;2.00;;
9848;SDS011;4963;51.444;6.528;2022-10-24T07:35:47;7.73;;;2.10;;
9848;SDS011;4963;51.444;6.528;2022-10-24T07:38:15;7.00;;;2.00;;
9848;SDS011;4963;51.444;6.528;2022-10-24T07:40:42;4.87;;;2.07;;
9848;SDS011;4963;51.444;6.528;2022-10-24T07:43:09;8.67;;;2.23;;
9848;SDS011;4963;51.444;6.528;2022-10-24T07:45:36;8.27;;;1.90;;
9848;SDS011;4963;51.444;6.528;2022-10-24T07:48:04;6.13;;;1.53;;
9848;SDS011;4963;51.444;6.528;2022-10-24T07:50:31;4.27;;;1.60;;
9848;SDS011;4963;51.444;6.528;2022-10-24T07:52:58;6.17;;;1.73;;
9848;SDS011;4963;51.444;6.528;2022-10-24T07:55:26;6.87;;;1.60;;
9848;SDS011;4963;51.444;6.528;2022-10-24T07:57:53;3.90;;;1.63;;
9848;SDS011;4963;51.444;6.528;2022-10-24T08:00:20;6.17;;;1.67;;
9848;SDS011;4963;51.444;6.528;2022-10-24T08:02:47;6.10;;;1.90;;
9848;SDS011;4963;51.444;6.528;2022-10-24T08:05:13;7.43;;;2.00;;
9848;SDS011;4963;51.444;6.528;2022-10-24T08:07:40;7.20;;;2.30;;
9848;SDS011;4963;51.444;6.528;2022-10-24T08:10:09;6.97;;;2.40;;
9848;SDS011;4963;51.444;6.528;2022-10-24T08:12:38;6.83;;;2.20;;
9848;SDS011;4963;51.444;6.528;2022-10-24T08:15:05;4.20;;;1.83;;
9848;SDS011;4963;51.444;6.528;2022-10-24T08:17:33;5.80;;;2.00;;
9848;SDS011;4963;51.444;6.528;2022-10-24T08:20:00;7.83;;;2.17;;
9848;SDS011;4963;51.444;6.528;2022-10-24T08:22:27;8.97;;;2.40;;
9848;SDS011;4963;51.444;6.528;2022-10-24T08:24:54;8.43;;;2.10;;
9848;SDS011;4963;51.444;6.528;2022-10-24T08:27:20;4.23;;;1.80;;
9848;SDS011;4963;51.444;6.528;2022-10-24T08:29:48;4.93;;;1.97;;
9848;SDS011;4963;51.444;6.528;2022-10-24T08:32:15;8.27;;;2.67;;
9848;SDS011;4963;51.444;6.528;2022-10-24T08:34:42;9.03;;;2.07;;
9848;SDS011;4963;51.444;6.528;2022-10-24T08:37:09;6.37;;;2.07;;
9848;SDS011;4963;51.444;6.528;2022-10-24T08:39:36;6.23;;;1.90;;
9848;SDS011;4963;51.444;6.528;2022-10-24T08:42:04;7.43;;;2.10;;
9848;SDS011;4963;51.444;6.528;2022-10-24T08:44:33;8.33;;;1.97;;
9848;SDS011;4963;51.444;6.528;2022-10-24T08:47:05;6.23;;;1.90;;
9848;SDS011;4963;51.444;6.528;2022-10-24T08:49:39;6.97;;;2.10;;
9848;SDS011;4963;51.444;6.528;2022-10-24T08:52:12;5.67;;;2.20;;
9848;SDS011;4963;51.444;6.528;2022-10-24T08:54:43;5.37;;;1.87;;
9848;SDS011;4963;51.444;6.528;2022-10-24T08:57:15;9.60;;;2.43;;
9848;SDS011;4963;51.444;6.528;2022-10-24T08:59:45;5.77;;;1.83;;
9848;SDS011;4963;51.444;6.528;2022-10-24T09:02:14;8.43;;;2.67;;
9848;SDS011;4963;51.444;6.528;2022-10-24T09:04:44;6.30;;;2.13;;
9848;SDS011;4963;51.444;6.528;2022-10-24T09:07:17;9.70;;;1.80;;
9848;SDS011;4963;51.444;6.528;2022-10-24T09:09:46;5.17;;;1.80;;
9848;SDS011;4963;51.444;6.528;2022-10-24T09:12:15;9.53;;;2.17;;
9848;SDS011;4963;51.444;6.528;2022-10-24T09:14:44;9.40;;;2.07;;
9848;SDS011;4963;51.444;6.528;2022-10-24T09:17:17;6.07;;;2.00;;
9848;SDS011;4963;51.444;6.528;2022-10-24T09:19:48;6.83;;;2.17;;
9848;SDS011;4963;51.444;6.528;2022-10-24T09:22:18;11.97;;;2.10;;
9848;SDS011;4963;51.444;6.528;2022-10-24T09:24:47;5.23;;;2.10;;
9848;SDS011;4963;51.444;6.528;2022-10-24T09:27:19;6.73;;;2.17;;
9848;SDS011;4963;51.444;6.528;2022-10-24T09:29:49;9.57;;;2.30;;
9848;SDS011;4963;51.444;6.528;2022-10-24T09:32:18;9.13;;;2.30;;
9848;SDS011;4963;51.444;6.528;2022-10-24T09:34:48;5.47;;;1.90;;
9848;SDS011;4963;51.444;6.528;2022-10-24T09:37:28;7.97;;;2.53;;
9848;SDS011;4963;51.444;6.528;2022-10-24T09:40:07;9.73;;;1.97;;
9848;SDS011;4963;51.444;6.528;2022-10-24T09:42:39;7.00;;;2.13;;
9848;SDS011;4963;51.444;6.528;2022-10-24T09:48:13;8.73;;;2.20;;
9848;SDS011;4963;51.444;6.528;2022-10-24T09:50:43;6.77;;;2.27;;
9848;SDS011;4963;51.444;6.528;2022-10-24T09:53:23;8.17;;;2.37;;
9848;SDS011;4963;51.444;6.528;2022-10-24T09:55:52;11.17;;;2.37;;
9848;SDS011;4963;51.444;6.528;2022-10-24T09:58:23;4.77;;;2.10;;
9848;SDS011;4963;51.444;6.528;2022-10-24T10:00:57;8.20;;;2.07;;
9848;SDS011;4963;51.444;6.528;2022-10-24T10:03:27;4.70;;;2.07;;
9848;SDS011;4963;51.444;6.528;2022-10-24T10:05:55;8.68;;;2.22;;
9848;SDS011;4963;51.444;6.528;2022-10-24T10:08:23;7.77;;;2.27;;
9848;SDS011;4963;51.444;6.528;2022-10-24T10:11:00;9.53;;;2.43;;
9848;SDS011;4963;51.444;6.528;2022-10-24T10:13:29;7.10;;;2.37;;
9848;SDS011;4963;51.444;6.528;2022-10-24T10:16:01;6.03;;;2.10;;
9848;SDS011;4963;51.444;6.528;2022-10-24T10:18:34;9.90;;;2.20;;
9848;SDS011;4963;51.444;6.528;2022-10-24T10:21:11;8.60;;;2.17;;
9848;SDS011;4963;51.444;6.528;2022-10-24T10:23:40;11.43;;;2.47;;
9848;SDS011;4963;51.444;6.528;2022-10-24T10:28:58;7.70;;;2.20;;
9848;SDS011;4963;51.444;6.528;2022-10-24T10:31:30;6.88;;;2.40;;
9848;SDS011;4963;51.444;6.528;2022-10-24T10:34:06;7.07;;;2.10;;
9848;SDS011;4963;51.444;6.528;2022-10-24T10:40:06;12.25;;;2.72;;
9848;SDS011;4963;51.444;6.528;2022-10-24T10:42:48;8.10;;;2.30;;
9848;SDS011;4963;51.444;6.528;2022-10-24T10:45:38;5.90;;;2.15;;
9848;SDS011;4963;51.444;6.528;2022-10-24T10:48:22;11.50;;;2.53;;
9848;SDS011;4963;51.444;6.528;2022-10-24T10:51:02;4.63;;;1.90;;
9848;SDS011;4963;51.444;6.528;2022-10-24T10:53:41;7.68;;;2.17;;
9848;SDS011;4963;51.444;6.528;2022-10-24T10:56:18;8.68;;;2.28;;
9848;SDS011;4963;51.444;6.528;2022-10-24T10:58:57;7.30;;;2.03;;
9848;SDS011;4963;51.444;6.528;2022-10-24T11:01:35;8.90;;;2.35;;
9848;SDS011;4963;51.444;6.528;2022-10-24T11:04:12;9.68;;;2.65;;
9848;SDS011;4963;51.444;6.528;2022-10-24T11:06:50;7.30;;;1.80;;
9848;SDS011;4963;51.444;6.528;2022-10-24T11:09:26;9.03;;;2.47;;
9848;SDS011;4963;51.444;6.528;2022-10-24T11:12:06;8.50;;;2.08;;
9848;SDS011;4963;51.444;6.528;2022-10-24T11:14:38;6.05;;;2.13;;
9848;SDS011;4963;51.444;6.528;2022-10-24T11:17:12;8.43;;;2.30;;
9848;SDS011;4963;51.444;6.528;2022-10-24T11:19:44;7.47;;;2.20;;
9848;SDS011;4963;51.444;6.528;2022-10-24T11:22:20;6.60;;;2.20;;
9848;SDS011;4963;51.444;6.528;2022-10-24T11:24:52;9.73;;;2.20;;
9848;SDS011;4963;51.444;6.528;2022-10-24T11:27:25;15.00;;;2.75;;
9848;SDS011;4963;51.444;6.528;2022-10-24T11:29:59;8.20;;;2.20;;
9848;SDS011;4963;51.444;6.528;2022-10-24T11:32:31;9.57;;;2.40;;
9848;SDS011;4963;51.444;6.528;2022-10-24T11:35:04;9.27;;;2.17;;
9848;SDS011;4963;51.444;6.528;2022-10-24T11:37:41;10.20;;;2.73;;
9848;SDS011;4963;51.444;6.528;2022-10-24T11:40:12;9.45;;;2.50;;
9848;SDS011;4963;51.444;6.528;2022-10-24T11:42:44;8.68;;;2.08;;
9848;SDS011;4963;51.444;6.528;2022-10-24T11:45:17;9.75;;;2.35;;
9848;SDS011;4963;51.444;6.528;2022-10-24T11:47:48;6.57;;;1.88;;
9848;SDS011;4963;51.444;6.528;2022-10-24T11:50:20;6.73;;;2.00;;
9848;SDS011;4963;51.444;6.528;2022-10-24T11:52:54;5.67;;;2.27;;
9848;SDS011;4963;51.444;6.528;2022-10-24T11:55:26;8.13;;;2.50;;
9848;SDS011;4963;51.444;6.528;2022-10-24T11:58:01;9.50;;;2.20;;
9848;SDS011;4963;51.444;6.528;2022-10-24T12:00:34;11.63;;;2.83;;
9848;SDS011;4963;51.444;6.528;2022-10-24T12:03:32;7.97;;;2.20;;
9848;SDS011;4963;51.444;6.528;2022-10-24T12:06:15;6.00;;;2.10;;
9848;SDS011;4963;51.444;6.528;2022-10-24T12:09:10;8.95;;;2.60;;
9848;SDS011;4963;51.444;6.528;2022-10-24T12:11:59;12.60;;;2.47;;
9848;SDS011;4963;51.444;6.528;2022-10-24T12:14:46;8.50;;;2.25;;
9848;SDS011;4963;51.444;6.528;2022-10-24T12:17:41;10.55;;;2.47;;
9848;SDS011;4963;51.444;6.528;2022-10-24T12:20:19;10.88;;;2.72;;
9848;SDS011;4963;51.444;6.528;2022-10-24T12:22:47;9.32;;;2.30;;
9848;SDS011;4963;51.444;6.528;2022-10-24T12:25:19;12.90;;;2.42;;
9848;SDS011;4963;51.444;6.528;2022-10-24T12:27:52;8.57;;;2.53;;
9848;SDS011;4963;51.444;6.528;2022-10-24T12:30:23;12.77;;;2.70;;
9848;SDS011;4963;51.444;6.528;2022-10-24T12:32:51;8.38;;;2.10;;
9848;SDS011;4963;51.444;6.528;2022-10-24T12:35:43;6.65;;;2.25;;
9848;SDS011;4963;51.444;6.528;2022-10-24T12:41:42;9.02;;;2.95;;
9848;SDS011;4963;51.444;6.528;2022-10-24T12:44:35;7.30;;;2.15;;
9848;SDS011;4963;51.444;6.528;2022-10-24T12:47:23;6.57;;;2.35;;
9848;SDS011;4963;51.444;6.528;2022-10-24T12:53:37;10.15;;;2.42;;
9848;SDS011;4963;51.444;6.528;2022-10-24T12:56:26;9.97;;;2.27;;
9848;SDS011;4963;51.444;6.528;2022-10-24T12:58:56;10.50;;;2.85;;
9848;SDS011;4963;51.444;6.528;2022-10-24T13:01:26;7.57;;;1.90;;
9848;SDS011;4963;51.444;6.528;2022-10-24T13:07:06;10.73;;;2.80;;
9848;SDS011;4963;51.444;6.528;2022-10-24T13:09:53;10.70;;;2.73;;
9848;SDS011;4963;51.444;6.528;2022-10-24T13:12:35;7.60;;;2.73;;
9848;SDS011;4963;51.444;6.528;2022-10-24T13:15:19;8.23;;;2.40;;
9848;SDS011;4963;51.444;6.528;2022-10-24T13:17:59;8.70;;;2.63;;
9848;SDS011;4963;51.444;6.528;2022-10-24T13:20:36;12.10;;;2.53;;
9848;SDS011;4963;51.444;6.528;2022-10-24T13:23:04;7.63;;;2.47;;
9848;SDS011;4963;51.444;6.528;2022-10-24T13:25:39;9.85;;;2.30;;
9848;SDS011;4963;51.444;6.528;2022-10-24T13:34:14;7.77;;;1.90;;
9848;SDS011;4963;51.444;6.528;2022-10-24T13:36:48;8.33;;;2.20;;
9848;SDS011;4963;51.444;6.528;2022-10-24T13:39:20;12.98;;;2.83;;
9848;SDS011;4963;51.444;6.528;2022-10-24T13:41:55;12.23;;;2.20;;
9848;SDS011;4963;51.444;6.528;2022-10-24T13:44:25;12.37;;;2.83;;
9848;SDS011;4963;51.444;6.528;2022-10-24T13:46:55;9.10;;;2.60;;
9848;SDS011;4963;51.444;6.528;2022-10-24T13:49:29;11.07;;;2.60;;
9848;SDS011;4963;51.444;6.528;2022-10-24T13:51:59;6.83;;;2.13;;
9848;SDS011;4963;51.444;6.528;2022-10-24T13:54:32;8.37;;;2.30;;
9848;SDS011;4963;51.444;6.528;2022-10-24T13:57:02;6.90;;;2.23;;
9848;SDS011;4963;51.444;6.528;2022-10-24T13:59:29;9.23;;;2.27;;
9848;SDS011;4963;51.444;6.528;2022-10-24T14:01:58;8.07;;;2.77;;
9848;SDS011;4963;51.444;6.528;2022-10-24T14:04:28;9.70;;;2.37;;
9848;SDS011;4963;51.444;6.528;2022-10-24T14:07:00;10.60;;;2.53;;
9848;SDS011;4963;51.444;6.528;2022-10-24T14:09:28;7.93;;;2.57;;
9848;SDS011;4963;51.444;6.528;2022-10-24T14:11:55;10.10;;;2.97;;
9848;SDS011;4963;51.444;6.528;2022-10-24T14:14:25;10.63;;;2.60;;
9848;SDS011;4963;51.444;6.528;2022-10-24T14:17:03;10.10;;;3.13;;
9848;SDS011;4963;51.444;6.528;2022-10-24T14:19:33;7.50;;;2.40;;
9848;SDS011;4963;51.444;6.528;2022-10-24T14:22:02;10.57;;;2.37;;
9848;SDS011;4963;51.444;6.528;2022-10-24T14:24:44;6.87;;;2.47;;
9848;SDS011;4963;51.444;6.528;2022-10-24T14:27:11;11.43;;;2.27;;
9848;SDS011;4963;51.444;6.528;2022-10-24T14:29:39;6.63;;;2.13;;
9848;SDS011;4963;51.444;6.528;2022-10-24T14:32:17;8.13;;;2.10;;
9848;SDS011;4963;51.444;6.528;2022-10-24T14:34:46;5.77;;;2.00;;
9848;SDS011;4963;51.444;6.528;2022-10-24T14:37:14;7.40;;;2.20;;
9848;SDS011;4963;51.444;6.528;2022-10-24T14:39:44;5.57;;;1.77;;
9848;SDS011;4963;51.444;6.528;2022-10-24T14:42:12;6.40;;;1.97;;
9848;SDS011;4963;51.444;6.528;2022-10-24T14:44:40;7.47;;;2.00;;
9848;SDS011;4963;51.444;6.528;2022-10-24T14:47:17;9.97;;;2.40;;
9848;SDS011;4963;51.444;6.528;2022-10-24T14:49:49;9.13;;;2.80;;
9848;SDS011;4963;51.444;6.528;2022-10-24T14:52:18;5.87;;;2.00;;
9848;SDS011;4963;51.444;6.528;2022-10-24T14:54:55;14.43;;;2.73;;
9848;SDS011;4963;51.444;6.528;2022-10-24T14:57:26;8.53;;;2.33;;
9848;SDS011;4963;51.444;6.528;2022-10-24T14:59:54;9.30;;;2.07;;
9848;SDS011;4963;51.444;6.528;2022-10-24T15:02:24;6.67;;;1.97;;
9848;SDS011;4963;51.444;6.528;2022-10-24T15:07:53;13.00;;;2.97;;
9848;SDS011;4963;51.444;6.528;2022-10-24T15:10:25;10.07;;;2.50;;
9848;SDS011;4963;51.444;6.528;2022-10-24T15:12:58;8.10;;;2.30;;
9848;SDS011;4963;51.444;6.528;2022-10-24T15:15:28;8.93;;;2.50;;
9848;SDS011;4963;51.444;6.528;2022-10-24T15:17:56;10.57;;;2.43;;
9848;SDS011;4963;51.444;6.528;2022-10-24T15:20:26;6.47;;;2.13;;
9848;SDS011;4963;51.444;6.528;2022-10-24T15:22:57;7.67;;;2.30;;
9848;SDS011;4963;51.444;6.528;2022-10-24T15:25:27;10.53;;;2.47;;
9848;SDS011;4963;51.444;6.528;2022-10-24T15:27:57;12.07;;;2.43;;
9848;SDS011;4963;51.444;6.528;2022-10-24T15:30:25;9.90;;;2.40;;
9848;SDS011;4963;51.444;6.528;2022-10-24T15:32:55;8.73;;;2.37;;
9848;SDS011;4963;51.444;6.528;2022-10-24T15:35:23;9.07;;;2.37;;
9848;SDS011;4963;51.444;6.528;2022-10-24T15:37:52;6.93;;;2.30;;
9848;SDS011;4963;51.444;6.528;2022-10-24T15:40:21;10.40;;;2.13;;
9848;SDS011;4963;51.444;6.528;2022-10-24T15:42:50;9.57;;;2.27;;
9848;SDS011;4963;51.444;6.528;2022-10-24T15:45:17;7.27;;;2.20;;
9848;SDS011;4963;51.444;6.528;2022-10-24T15:47:44;8.47;;;2.40;;
9848;SDS011;4963;51.444;6.528;2022-10-24T15:50:12;11.10;;;2.30;;
9848;SDS011;4963;51.444;6.528;2022-10-24T15:52:42;9.60;;;2.70;;
9848;SDS011;4963;51.444;6.528;2022-10-24T15:55:15;5.83;;;2.30;;
9848;SDS011;4963;51.444;6.528;2022-10-24T15:57:44;9.90;;;2.53;;
9848;SDS011;4963;51.444;6.528;2022-10-24T16:00:11;10.07;;;2.47;;
9848;SDS011;4963;51.444;6.528;2022-10-24T16:02:39;6.00;;;2.00;;